createdAt,value
2023-02-28T00:02:05.121Z,7.33
2023-02-28T00:05:02.040Z,6.30
2023-02-28T00:07:51.475Z,5.47
2023-02-28T00:10:40.577Z,6.00
2023-02-28T00:13:30.628Z,5.70
2023-02-28T00:16:20.986Z,6.40
2023-02-28T00:19:10.191Z,5.40
2023-02-28T00:21:58.698Z,6.30
2023-02-28T00:24:47.959Z,5.87
2023-02-28T00:27:37.020Z,5.77
2023-02-28T00:30:27.031Z,5.60
2023-02-28T00:33:15.786Z,6.50
2023-02-28T00:36:09.272Z,6.23
2023-02-28T00:38:57.882Z,6.20
2023-02-28T00:41:46.423Z,5.50
2023-02-28T00:44:34.952Z,6.30
2023-02-28T00:47:24.847Z,5.90
2023-02-28T00:50:13.720Z,5.90
2023-02-28T00:53:02.223Z,6.60
2023-02-28T00:55:51.331Z,6.10
2023-02-28T00:58:39.774Z,6.10
2023-02-28T01:01:28.685Z,7.13
2023-02-28T01:04:19.162Z,7.47
2023-02-28T01:07:07.692Z,5.83
2023-02-28T01:09:56.279Z,6.63
2023-02-28T01:12:44.781Z,5.53
2023-02-28T01:15:33.790Z,5.67
2023-02-28T01:18:23.220Z,5.87
2023-02-28T01:21:15.240Z,6.20
2023-02-28T01:24:04.106Z,6.53
2023-02-28T01:26:52.582Z,6.37
2023-02-28T01:29:41.220Z,5.67
2023-02-28T01:32:29.710Z,6.80
2023-02-28T01:35:18.378Z,6.40
2023-02-28T01:38:21.223Z,6.50
2023-02-28T01:41:16.665Z,6.40
2023-02-28T01:44:06.867Z,6.87
2023-02-28T01:46:55.304Z,6.60
2023-02-28T01:49:43.915Z,5.50
2023-02-28T01:52:32.983Z,6.20
2023-02-28T01:55:24.405Z,6.23
2023-02-28T01:58:12.970Z,6.73
2023-02-28T02:01:04.008Z,6.47
2023-02-28T02:03:56.455Z,5.50
2023-02-28T02:06:46.738Z,6.20
2023-02-28T02:09:35.272Z,5.50
2023-02-28T02:12:30.369Z,5.77
2023-02-28T02:15:23.185Z,6.57
2023-02-28T02:18:18.485Z,6.20
2023-02-28T02:21:37.172Z,7.43
2023-02-28T02:24:50.095Z,5.90
2023-02-28T02:27:54.225Z,6.30
2023-02-28T02:31:02.207Z,6.60
2023-02-28T02:34:28.935Z,5.90
2023-02-28T02:37:29.933Z,5.97
2023-02-28T02:40:21.170Z,7.10
2023-02-28T02:43:13.829Z,6.43
2023-02-28T02:46:06.824Z,6.80
2023-02-28T02:48:57.363Z,6.60
2023-02-28T02:51:48.680Z,7.23
2023-02-28T02:54:39.534Z,7.00
2023-02-28T02:57:31.676Z,6.00
2023-02-28T03:00:24.009Z,7.63
2023-02-28T03:03:13.568Z,7.00
2023-02-28T03:06:03.710Z,7.67
2023-02-28T03:08:53.733Z,7.00
2023-02-28T03:11:42.817Z,7.70
2023-02-28T03:14:41.407Z,7.20
2023-02-28T03:17:42.614Z,7.50
2023-02-28T03:20:38.397Z,7.93
2023-02-28T03:23:34.398Z,7.20
2023-02-28T03:26:26.024Z,7.10
2023-02-28T03:29:18.355Z,6.93
2023-02-28T03:32:15.698Z,7.40
2023-02-28T03:35:08.777Z,7.93
2023-02-28T03:38:03.328Z,7.53
2023-02-28T03:40:55.900Z,8.10
2023-02-28T03:43:50.584Z,7.40
2023-02-28T03:46:41.411Z,7.30
2023-02-28T03:49:33.160Z,8.00
2023-02-28T03:52:25.043Z,8.13
2023-02-28T03:55:15.203Z,7.13
2023-02-28T03:58:07.295Z,7.80
2023-02-28T04:01:07.232Z,7.90
2023-02-28T04:03:55.968Z,8.27
2023-02-28T04:06:45.267Z,8.20
2023-02-28T04:09:33.756Z,8.00
2023-02-28T04:12:24.088Z,8.07
2023-02-28T04:15:12.690Z,7.90
2023-02-28T04:18:02.528Z,8.30
2023-02-28T04:20:51.076Z,8.30
2023-02-28T04:23:39.908Z,7.67
2023-02-28T04:26:31.770Z,8.40
2023-02-28T04:29:22.265Z,8.00
2023-02-28T04:32:10.846Z,8.50
2023-02-28T04:35:00.834Z,8.00
2023-02-28T04:37:49.289Z,8.70
2023-02-28T04:40:37.828Z,8.00
2023-02-28T04:43:26.303Z,6.83
2023-02-28T04:46:14.879Z,7.80
2023-02-28T04:49:03.730Z,7.60
2023-02-28T04:51:53.870Z,7.60
2023-02-28T04:54:42.485Z,9.17
2023-02-28T04:57:30.993Z,8.80
2023-02-28T05:00:20.186Z,7.90
2023-02-28T05:03:08.734Z,9.23
2023-02-28T05:05:57.293Z,7.97
2023-02-28T05:08:47.195Z,8.33
2023-02-28T05:11:36.921Z,7.73
2023-02-28T05:14:25.612Z,7.70
2023-02-28T05:17:14.124Z,7.67
2023-02-28T05:20:14.712Z,8.13
2023-02-28T05:23:04.357Z,7.67
2023-02-28T05:25:55.001Z,8.30
2023-02-28T05:28:43.538Z,8.03
2023-02-28T05:31:32.661Z,8.90
2023-02-28T05:34:21.372Z,8.13
2023-02-28T05:37:13.481Z,8.90
2023-02-28T05:40:02.038Z,9.30
2023-02-28T05:42:53.402Z,8.70
2023-02-28T05:45:42.205Z,8.93
2023-02-28T05:48:30.757Z,7.80
2023-02-28T05:51:19.475Z,9.20
2023-02-28T05:54:08.404Z,8.10
2023-02-28T05:56:57.111Z,8.83
2023-02-28T05:59:46.938Z,8.10
2023-02-28T06:02:35.457Z,8.07
2023-02-28T06:05:24.487Z,9.23
2023-02-28T06:08:13.014Z,7.63
2023-02-28T06:11:04.975Z,8.17
2023-02-28T06:13:55.519Z,8.67
2023-02-28T06:16:45.679Z,8.83
2023-02-28T06:19:34.758Z,8.43
2023-02-28T06:22:23.456Z,8.73
2023-02-28T06:25:12.261Z,9.10
2023-02-28T06:28:00.798Z,8.17
2023-02-28T06:30:49.378Z,8.37
2023-02-28T06:33:40.321Z,8.40
2023-02-28T06:36:29.032Z,8.40
2023-02-28T06:39:17.683Z,8.67
2023-02-28T06:42:06.258Z,9.33
2023-02-28T06:44:54.765Z,8.43
2023-02-28T06:47:44.206Z,8.67
2023-02-28T06:50:34.107Z,9.50
2023-02-28T06:53:22.660Z,8.23
2023-02-28T06:56:13.057Z,8.60
2023-02-28T06:59:01.598Z,8.93
2023-02-28T07:01:50.151Z,9.20
2023-02-28T07:04:41.441Z,8.70
2023-02-28T07:07:31.428Z,8.13
2023-02-28T07:10:20.612Z,8.33
2023-02-28T07:13:10.356Z,9.60
2023-02-28T07:16:00.668Z,10.83
2023-02-28T07:18:49.370Z,9.20
2023-02-28T07:21:37.837Z,10.37
2023-02-28T07:24:29.277Z,9.33
2023-02-28T07:27:24.618Z,8.90
2023-02-28T07:30:14.111Z,8.10
2023-02-28T07:33:02.652Z,9.83
2023-02-28T07:35:51.169Z,8.63
2023-02-28T07:38:39.725Z,8.33
2023-02-28T07:41:31.147Z,9.00
2023-02-28T07:44:19.929Z,9.10
2023-02-28T07:47:10.062Z,9.90
2023-02-28T07:49:58.632Z,9.30
2023-02-28T07:52:47.153Z,8.70
2023-02-28T07:55:36.050Z,9.87
2023-02-28T07:58:26.163Z,9.27
2023-02-28T08:01:15.239Z,10.03
2023-02-28T08:04:03.723Z,10.00
2023-02-28T08:06:53.994Z,9.60
2023-02-28T08:09:42.629Z,10.40
2023-02-28T08:12:31.133Z,8.50
2023-02-28T08:15:21.014Z,10.30
2023-02-28T08:18:09.501Z,12.57
2023-02-28T08:20:58.515Z,10.50
2023-02-28T08:23:48.738Z,9.53
2023-02-28T08:26:37.266Z,9.70
2023-02-28T08:29:25.813Z,10.70
2023-02-28T08:32:28.884Z,10.10
2023-02-28T08:35:18.358Z,9.60
2023-02-28T08:38:06.908Z,9.70
2023-02-28T08:40:59.949Z,9.77
2023-02-28T08:43:48.492Z,11.37
2023-02-28T08:46:37.329Z,10.00
2023-02-28T08:49:27.262Z,10.60
2023-02-28T08:52:15.766Z,10.60
2023-02-28T08:55:04.469Z,10.87
2023-02-28T08:57:53.365Z,10.40
2023-02-28T09:00:42.125Z,11.03
2023-02-28T09:03:30.673Z,9.67
2023-02-28T09:06:21.894Z,11.53
2023-02-28T09:09:10.559Z,10.90
2023-02-28T09:11:59.180Z,11.57
2023-02-28T09:14:47.895Z,9.93
2023-02-28T09:17:36.438Z,10.20
2023-02-28T09:20:25.008Z,11.07
2023-02-28T09:23:15.302Z,11.00
2023-02-28T09:26:03.829Z,11.00
2023-02-28T09:28:53.036Z,10.87
2023-02-28T09:31:41.657Z,9.83
2023-02-28T09:34:31.751Z,10.93
2023-02-28T09:37:27.546Z,12.00
2023-02-28T09:40:19.182Z,10.50
2023-02-28T09:43:07.869Z,10.90
2023-02-28T09:46:01.745Z,11.57
2023-02-28T09:48:50.945Z,11.63
2023-02-28T09:51:49.665Z,11.30
2023-02-28T09:54:39.738Z,11.97
2023-02-28T09:57:34.719Z,10.80
2023-02-28T10:00:26.020Z,11.17
2023-02-28T10:03:28.035Z,10.77
2023-02-28T10:06:19.586Z,12.47
2023-02-28T10:09:14.436Z,12.33
2023-02-28T10:12:05.997Z,10.97
2023-02-28T10:14:56.471Z,11.57
2023-02-28T10:17:55.188Z,12.40
2023-02-28T10:20:49.940Z,11.33
2023-02-28T10:23:39.577Z,11.27
2023-02-28T10:26:29.160Z,11.57
2023-02-28T10:29:17.752Z,11.77
2023-02-28T10:32:08.914Z,12.40
2023-02-28T10:34:59.810Z,12.07
2023-02-28T10:37:50.154Z,12.23
2023-02-28T10:40:38.646Z,11.00
2023-02-28T10:43:27.106Z,12.20
2023-02-28T10:46:26.247Z,11.67
2023-02-28T10:49:19.800Z,11.67
2023-02-28T10:52:10.807Z,12.70
2023-02-28T10:55:16.431Z,11.90
2023-02-28T10:58:05.083Z,11.90
2023-02-28T11:00:54.436Z,11.83
2023-02-28T11:03:49.602Z,11.50
2023-02-28T11:06:40.322Z,11.50
2023-02-28T11:09:34.585Z,11.83
2023-02-28T11:12:24.890Z,11.97
2023-02-28T11:15:24.280Z,13.03
2023-02-28T11:18:23.917Z,12.60
2023-02-28T11:21:18.530Z,11.93
2023-02-28T11:24:18.119Z,12.40
2023-02-28T11:27:06.652Z,12.63
2023-02-28T11:29:55.645Z,12.50
2023-02-28T11:32:50.599Z,12.73
2023-02-28T11:35:40.678Z,13.00
2023-02-28T11:38:29.655Z,12.57
2023-02-28T11:41:40.210Z,12.60
2023-02-28T11:44:38.313Z,12.90
2023-02-28T11:47:34.386Z,13.60
2023-02-28T11:50:34.819Z,12.77
2023-02-28T11:53:33.631Z,12.37
2023-02-28T11:56:30.803Z,11.50
2023-02-28T11:59:36.932Z,13.77
2023-02-28T12:02:29.225Z,12.87
2023-02-28T12:05:26.706Z,12.90
2023-02-28T12:08:28.734Z,11.70
2023-02-28T12:11:24.886Z,12.87
2023-02-28T12:14:47.786Z,13.87
2023-02-28T12:17:46.188Z,13.13
2023-02-28T12:20:38.053Z,13.37
2023-02-28T12:23:48.049Z,12.80
2023-02-28T12:26:41.421Z,11.63
2023-02-28T12:29:35.090Z,12.30
2023-02-28T12:32:25.926Z,12.87
2023-02-28T12:35:16.928Z,12.23
2023-02-28T12:38:11.240Z,11.73
2023-02-28T12:41:03.239Z,12.93
2023-02-28T12:43:57.590Z,12.17
2023-02-28T12:46:51.465Z,12.13
2023-02-28T12:49:43.385Z,13.03
2023-02-28T12:52:39.841Z,12.37
2023-02-28T12:55:33.659Z,11.90
2023-02-28T12:58:28.079Z,13.17
2023-02-28T13:01:41.551Z,11.87
2023-02-28T13:04:48.070Z,12.80
2023-02-28T13:08:09.037Z,13.10
2023-02-28T13:10:57.631Z,13.03
2023-02-28T13:13:46.876Z,12.43
2023-02-28T13:16:52.042Z,12.37
2023-02-28T13:19:43.413Z,13.37
2023-02-28T13:22:43.968Z,12.40
2023-02-28T13:25:54.438Z,12.17
2023-02-28T13:29:05.390Z,12.50
2023-02-28T13:32:33.852Z,13.50
2023-02-28T13:35:38.622Z,12.43
2023-02-28T13:38:38.049Z,13.23
2023-02-28T13:41:49.160Z,14.57
2023-02-28T13:45:24.246Z,14.00
2023-02-28T13:48:20.537Z,12.97
2023-02-28T13:51:39.646Z,13.77
2023-02-28T13:54:41.852Z,13.90
2023-02-28T13:57:42.301Z,13.50
2023-02-28T14:00:39.611Z,13.57
2023-02-28T14:03:41.018Z,14.03
2023-02-28T14:06:31.080Z,13.87
2023-02-28T14:09:24.586Z,13.63
2023-02-28T14:12:49.974Z,13.90
2023-02-28T14:16:00.522Z,14.20
2023-02-28T14:18:52.239Z,14.77
2023-02-28T14:21:47.828Z,14.80
2023-02-28T14:25:06.544Z,13.97
2023-02-28T14:28:00.984Z,14.17
2023-02-28T14:31:01.303Z,15.10
2023-02-28T14:34:02.364Z,16.10
2023-02-28T14:36:50.985Z,15.27
2023-02-28T14:39:43.088Z,14.27
2023-02-28T14:42:34.060Z,13.73
2023-02-28T14:45:23.020Z,14.73
2023-02-28T14:48:12.957Z,15.00
2023-02-28T14:51:02.655Z,15.10
2023-02-28T14:53:55.893Z,14.47
2023-02-28T14:56:45.266Z,14.90
2023-02-28T14:59:35.764Z,14.43
2023-02-28T15:02:26.056Z,13.60
2023-02-28T15:05:37.024Z,12.93
2023-02-28T15:08:30.954Z,14.53
2023-02-28T15:11:23.118Z,13.93
2023-02-28T15:14:17.757Z,14.07
2023-02-28T15:17:10.194Z,14.60
2023-02-28T15:19:58.834Z,16.47
2023-02-28T15:22:49.506Z,14.50
2023-02-28T15:25:38.095Z,14.47
2023-02-28T15:28:26.728Z,14.33
2023-02-28T15:31:25.510Z,13.77
2023-02-28T15:34:21.939Z,13.97
2023-02-28T15:37:41.594Z,15.10
2023-02-28T15:40:34.499Z,14.23
2023-02-28T15:43:28.613Z,14.50
2023-02-28T15:46:17.960Z,14.17
2023-02-28T15:49:06.528Z,14.00
2023-02-28T15:51:57.047Z,14.83
2023-02-28T15:54:46.934Z,14.83
2023-02-28T15:57:36.957Z,13.97
2023-02-28T16:00:27.342Z,13.97
2023-02-28T16:03:26.074Z,16.90
2023-02-28T16:06:40.258Z,14.83
2023-02-28T16:09:30.517Z,14.43
2023-02-28T16:12:19.144Z,15.23
2023-02-28T16:15:16.325Z,15.43
2023-02-28T16:18:07.665Z,14.87
2023-02-28T16:20:56.183Z,13.97
2023-02-28T16:23:45.039Z,13.60
2023-02-28T16:26:38.294Z,14.40
2023-02-28T16:29:29.983Z,13.23
2023-02-28T16:32:19.970Z,13.70
2023-02-28T16:35:11.852Z,15.43
2023-02-28T16:38:00.367Z,15.00
2023-02-28T16:40:48.919Z,14.57
2023-02-28T16:43:37.427Z,14.43
2023-02-28T16:46:26.500Z,14.37
2023-02-28T16:49:16.374Z,15.07
2023-02-28T16:52:05.515Z,14.60
2023-02-28T16:54:55.413Z,14.77
2023-02-28T16:57:45.222Z,14.30
2023-02-28T17:00:38.321Z,14.80
2023-02-28T17:03:33.864Z,13.77
2023-02-28T17:06:28.913Z,14.60
2023-02-28T17:09:22.920Z,12.50
2023-02-28T17:12:13.055Z,13.73
2023-02-28T17:15:01.545Z,13.97
2023-02-28T17:17:50.728Z,12.60
2023-02-28T17:20:39.224Z,13.33
2023-02-28T17:23:29.105Z,13.80
2023-02-28T17:26:20.910Z,13.83
2023-02-28T17:29:16.058Z,13.87
2023-02-28T17:32:16.043Z,13.63
2023-02-28T17:35:06.886Z,13.57
2023-02-28T17:37:55.482Z,13.23
2023-02-28T17:40:45.917Z,13.90
2023-02-28T17:43:34.471Z,13.10
2023-02-28T17:46:24.361Z,13.70
2023-02-28T17:49:12.932Z,14.40
2023-02-28T17:52:01.416Z,13.50
2023-02-28T17:54:49.939Z,14.90
2023-02-28T17:57:40.129Z,13.70
2023-02-28T18:00:28.777Z,14.30
2023-02-28T18:03:17.310Z,15.73
2023-02-28T18:06:06.866Z,14.27
2023-02-28T18:08:55.869Z,13.77
2023-02-28T18:11:45.520Z,15.40
2023-02-28T18:14:35.345Z,14.47
2023-02-28T18:17:23.887Z,15.27
2023-02-28T18:20:13.085Z,14.70
2023-02-28T18:23:01.627Z,15.20
2023-02-28T18:25:50.193Z,14.80
2023-02-28T18:28:40.887Z,15.30
2023-02-28T18:31:32.437Z,15.93
2023-02-28T18:34:21.486Z,15.03
2023-02-28T18:37:11.902Z,14.67
2023-02-28T18:40:00.395Z,14.30
2023-02-28T18:42:48.883Z,14.27
2023-02-28T18:45:38.478Z,15.90
2023-02-28T18:48:28.417Z,14.80
2023-02-28T18:51:18.626Z,16.77
2023-02-28T18:54:07.191Z,16.87
2023-02-28T18:56:56.142Z,17.50
2023-02-28T18:59:44.718Z,17.40
2023-02-28T19:02:33.320Z,19.03
2023-02-28T19:05:23.208Z,20.20
2023-02-28T19:08:11.909Z,18.80
2023-02-28T19:11:00.462Z,17.83
2023-02-28T19:13:49.322Z,16.50
2023-02-28T19:16:38.135Z,17.73
2023-02-28T19:19:26.694Z,16.90
2023-02-28T19:22:16.601Z,18.13
2023-02-28T19:25:05.256Z,18.77
2023-02-28T19:27:54.366Z,17.63
2023-02-28T19:30:47.915Z,16.77
2023-02-28T19:33:36.415Z,15.77
2023-02-28T19:36:24.897Z,19.70
2023-02-28T19:39:14.793Z,20.03
2023-02-28T19:42:03.332Z,16.17
2023-02-28T19:44:51.918Z,17.70
2023-02-28T19:47:41.118Z,16.23
2023-02-28T19:50:29.603Z,17.60
2023-02-28T19:53:18.200Z,15.70
2023-02-28T19:56:09.451Z,16.83
2023-02-28T19:58:59.094Z,16.37
2023-02-28T20:01:47.898Z,18.00
2023-02-28T20:04:36.452Z,15.80
2023-02-28T20:07:26.659Z,16.37
2023-02-28T20:10:15.280Z,16.97
2023-02-28T20:13:05.517Z,18.03
2023-02-28T20:15:54.558Z,17.77
2023-02-28T20:18:44.265Z,17.27
2023-02-28T20:21:33.191Z,18.20
2023-02-28T20:24:25.966Z,19.47
2023-02-28T20:27:14.864Z,20.37
2023-02-28T20:30:05.832Z,18.70
2023-02-28T20:32:54.514Z,19.37
2023-02-28T20:35:43.128Z,18.33
2023-02-28T20:38:31.744Z,20.93
2023-02-28T20:41:20.736Z,22.00
2023-02-28T20:44:12.878Z,22.33
2023-02-28T20:47:03.344Z,20.60
2023-02-28T20:49:51.918Z,18.40
2023-02-28T20:52:40.481Z,19.70
2023-02-28T20:55:29.002Z,19.97
2023-02-28T20:58:17.495Z,19.57
2023-02-28T21:01:15.940Z,21.20
2023-02-28T21:04:07.967Z,18.17
2023-02-28T21:06:59.025Z,19.43
2023-02-28T21:09:47.514Z,19.00
2023-02-28T21:12:36.037Z,17.20
2023-02-28T21:15:24.603Z,19.70
2023-02-28T21:18:13.459Z,18.30
2023-02-28T21:21:03.914Z,21.77
2023-02-28T21:23:52.998Z,18.87
2023-02-28T21:26:44.259Z,21.13
2023-02-28T21:29:32.814Z,19.70
2023-02-28T21:32:21.410Z,19.60
2023-02-28T21:35:10.854Z,19.63
2023-02-28T21:38:00.815Z,18.87
2023-02-28T21:40:51.298Z,18.57
2023-02-28T21:43:40.213Z,19.20
2023-02-28T21:46:30.611Z,19.30
2023-02-28T21:49:19.699Z,20.63
2023-02-28T21:52:08.225Z,18.23
2023-02-28T21:54:58.125Z,20.23
2023-02-28T21:57:46.607Z,19.80
2023-02-28T22:00:35.641Z,18.87
2023-02-28T22:03:24.158Z,20.30
2023-02-28T22:06:14.219Z,20.40
2023-02-28T22:09:05.893Z,19.00
2023-02-28T22:11:55.943Z,18.57
2023-02-28T22:14:46.096Z,18.60
2023-02-28T22:17:34.920Z,19.80
2023-02-28T22:20:23.442Z,17.80
2023-02-28T22:23:11.967Z,19.53
2023-02-28T22:26:01.940Z,18.60
2023-02-28T22:28:51.801Z,18.00
2023-02-28T22:31:40.451Z,17.20
2023-02-28T22:34:28.985Z,19.70
2023-02-28T22:37:17.681Z,20.00
2023-02-28T22:40:07.387Z,18.23
2023-02-28T22:42:55.834Z,16.03
2023-02-28T22:45:45.650Z,17.40
2023-02-28T22:48:34.515Z,17.90
2023-02-28T22:51:25.380Z,17.40
2023-02-28T22:54:13.902Z,17.70
2023-02-28T22:57:02.371Z,16.20
2023-02-28T22:59:50.854Z,17.30
2023-02-28T23:02:40.734Z,17.60
2023-02-28T23:05:31.324Z,16.30
2023-02-28T23:08:22.356Z,17.00
2023-02-28T23:11:11.564Z,16.50
2023-02-28T23:14:00.138Z,17.07
2023-02-28T23:16:50.340Z,15.97
2023-02-28T23:19:40.259Z,16.70
2023-02-28T23:22:28.754Z,16.37
2023-02-28T23:25:17.956Z,16.17
2023-02-28T23:28:06.923Z,14.73
2023-02-28T23:30:55.485Z,17.67
2023-02-28T23:33:44.008Z,16.40
2023-02-28T23:36:34.159Z,16.60
2023-02-28T23:39:23.344Z,14.83
2023-02-28T23:42:12.005Z,16.50
2023-02-28T23:45:00.946Z,13.53
2023-02-28T23:47:49.460Z,14.97
2023-02-28T23:50:38.817Z,14.50
2023-02-28T23:53:31.569Z,14.83
2023-02-28T23:56:22.086Z,15.23
2023-02-28T23:59:11.257Z,15.90
